»·PEaware :: DAL1267 KSLC-KMSO

DAL1267 :: KSLC-KMSO

FLIGHT INFORMATION

Flight Status: Arrived
Operator:
Delta Air Lines
More flights by this operator :: More flights under this callsign
Pilot: Ben F. (2808)
Aircraft: BOEING 727-200
(B722)
More flights by this aircraft type
Origin: KSLC Salt Lake City Intl
United States
Destination: KMSO Missoula Intl
United States
More flights between these airports :: More routes between these airports
Route: +SLC4 TCH J9 DLN MSO
File this flight plan on PilotEdge
Remarks:
Altitude:
(Current/Filed)
32,000ft
Speed:
(Current/Filed)
478kts
Departed: 07-Oct-18 08:21 AM
Arrived: 07-Oct-18 09:37 AM
Distance/Time
Traveled:
379nm/1:16
Distance/Time
To Go:
Arrived

Flight Plot

Page will automatically refresh every two minutes.

Flight plan parsing failed; only flown route is shown


Map Options




Map Legend


Flown Route
Filed Route
Departure Airport
Arrival Airport
Navaid (VOR, NDB)
Fix

Horizontal Profiles

Position Reports

Time Latitude Longitude Heading Altitude Ground
Speed
07-Oct-18 08:02 40.788495 -111.980699 283 4239ft 0kts
07-Oct-18 08:03 40.788495 -111.980699 283 4239ft 0kts
07-Oct-18 08:04 40.788495 -111.980699 283 4239ft 0kts
07-Oct-18 08:05 40.788495 -111.980699 283 4239ft 0kts
07-Oct-18 08:06 40.788495 -111.980699 283 4239ft 0kts
07-Oct-18 08:07 40.788495 -111.980699 283 4239ft 0kts
07-Oct-18 08:08 40.788495 -111.980699 283 4239ft 0kts
07-Oct-18 08:09 40.788495 -111.980699 283 4239ft 0kts
07-Oct-18 08:10 40.788495 -111.980699 283 4239ft 0kts
07-Oct-18 08:11 40.788495 -111.980699 283 4239ft 0kts
07-Oct-18 08:12 40.788482 -111.980628 283 4239ft 2kts
07-Oct-18 08:13 40.788197 -111.980015 6 4239ft 2kts
07-Oct-18 08:14 40.788089 -111.980059 19 4239ft 0kts
07-Oct-18 08:15 40.788089 -111.980059 19 4239ft 0kts
07-Oct-18 08:16 40.788090 -111.980059 19 4239ft 0kts
07-Oct-18 08:17 40.789658 -111.978909 82 4239ft 8kts
07-Oct-18 08:18 40.788466 -111.976910 175 4239ft 19kts
07-Oct-18 08:19 40.782688 -111.976227 174 4239ft 23kts
07-Oct-18 08:20 40.776530 -111.975006 176 4239ft 21kts
07-Oct-18 08:21 40.774678 -111.974726 146 4239ft 1kts
07-Oct-18 08:22 40.775885 -111.973272 355 4239ft 0kts
07-Oct-18 08:23 40.797083 -111.975752 355 4350ft 169kts
07-Oct-18 08:24 40.844382 -111.984701 351 6309ft 185kts
07-Oct-18 08:25 40.902431 -111.990044 4 8044ft 235kts
07-Oct-18 08:26 40.969781 -111.990128 357 10445ft 257kts
07-Oct-18 08:27 41.042143 -111.994968 0 12814ft 273kts
07-Oct-18 08:28 41.118312 -112.000935 0 13997ft 323kts
07-Oct-18 08:29 41.192856 -112.006680 1 15450ft 346kts
07-Oct-18 08:30 41.306418 -112.014681 1 17717ft 365kts
07-Oct-18 08:31 41.408502 -112.021766 1 19484ft 379kts
07-Oct-18 08:32 41.514474 -112.029128 0 21053ft 393kts
07-Oct-18 08:33 41.605558 -112.035473 0 22225ft 403kts
07-Oct-18 08:34 41.718240 -112.043346 0 23506ft 415kts
07-Oct-18 08:35 41.853652 -112.052840 359 24858ft 427kts
07-Oct-18 08:36 41.952753 -112.059811 359 25726ft 435kts
07-Oct-18 08:37 42.092698 -112.069692 359 26816ft 446kts
07-Oct-18 08:38 42.191189 -112.076671 359 27493ft 452kts
07-Oct-18 08:39 42.315526 -112.085512 358 28277ft 459kts
07-Oct-18 08:40 42.442344 -112.094561 358 28995ft 465kts
07-Oct-18 08:41 42.570937 -112.103771 358 29659ft 471kts
07-Oct-18 08:42 42.700846 -112.113111 358 30360ft 475kts
07-Oct-18 08:43 42.830917 -112.122505 357 31057ft 476kts
07-Oct-18 08:44 42.962043 -112.131936 356 31773ft 476kts
07-Oct-18 08:45 43.094064 -112.141612 355 32061ft 484kts
07-Oct-18 08:46 43.214801 -112.150480 355 32056ft 496kts
07-Oct-18 08:47 43.353547 -112.160664 355 32050ft 508kts
07-Oct-18 08:48 43.493701 -112.170989 355 32047ft 512kts
07-Oct-18 08:49 43.635587 -112.181495 355 32048ft 515kts
07-Oct-18 08:50 43.778212 -112.192105 355 32048ft 516kts
07-Oct-18 08:51 43.921010 -112.202361 356 32047ft 516kts
07-Oct-18 08:52 44.063268 -112.211425 356 32049ft 515kts
07-Oct-18 08:53 44.195457 -112.242503 347 32045ft 511kts
07-Oct-18 08:54 44.333591 -112.280741 347 32046ft 511kts
07-Oct-18 08:55 44.471087 -112.320194 346 32132ft 508kts
07-Oct-18 08:56 44.607372 -112.359562 346 32155ft 508kts
07-Oct-18 08:57 44.744004 -112.399219 346 32156ft 508kts
07-Oct-18 08:58 44.878839 -112.438652 346 32157ft 509kts
07-Oct-18 08:59 45.015548 -112.478700 345 32164ft 507kts
07-Oct-18 09:00 45.146176 -112.517679 348 32156ft 497kts
07-Oct-18 09:01 45.272835 -112.572898 330 32168ft 484kts
07-Oct-18 09:02 45.377266 -112.663628 329 30777ft 450kts
07-Oct-18 09:03 45.474895 -112.751426 328 28881ft 432kts
07-Oct-18 09:04 45.573499 -112.840711 329 26886ft 415kts
07-Oct-18 09:05 45.667840 -112.926501 329 24904ft 401kts
07-Oct-18 09:06 45.759402 -113.010083 330 24181ft 393kts
07-Oct-18 09:07 45.851802 -113.094736 330 24183ft 405kts
07-Oct-18 09:08 45.946283 -113.181674 330 24194ft 415kts
07-Oct-18 09:09 46.041820 -113.269977 330 23235ft 401kts
07-Oct-18 09:10 46.124567 -113.346732 330 21495ft 386kts
07-Oct-18 09:11 46.209914 -113.426227 329 19375ft 360kts
07-Oct-18 09:12 46.289845 -113.500916 329 17208ft 344kts
07-Oct-18 09:13 46.367827 -113.574073 329 15566ft 337kts
07-Oct-18 09:14 46.442401 -113.644323 329 14990ft 307kts
07-Oct-18 09:15 46.511520 -113.709584 328 15004ft 330kts
07-Oct-18 09:16 46.586753 -113.788160 307 14600ft 359kts
07-Oct-18 09:17 46.624554 -113.920505 292 13393ft 320kts
07-Oct-18 09:18 46.653820 -114.028736 292 12020ft 285kts
07-Oct-18 09:19 46.684147 -114.138253 293 12004ft 306kts
07-Oct-18 09:20 46.716359 -114.254027 293 11996ft 309kts
07-Oct-18 09:21 46.745829 -114.360165 293 11984ft 264kts
07-Oct-18 09:22 46.795757 -114.434012 323 11100ft 283kts
07-Oct-18 09:23 46.853378 -114.499083 323 10984ft 243kts
07-Oct-18 09:24 46.906399 -114.558970 323 10993ft 245kts
07-Oct-18 09:25 46.961200 -114.619684 323 10981ft 247kts
07-Oct-18 09:26 47.013072 -114.675833 322 10973ft 238kts
07-Oct-18 09:27 47.069593 -114.696365 39 10621ft 229kts
07-Oct-18 09:28 47.111770 -114.636620 43 9992ft 218kts
07-Oct-18 09:29 47.152131 -114.577452 56 9975ft 206kts
07-Oct-18 09:30 47.147077 -114.499113 102 9983ft 191kts
07-Oct-18 09:31 47.115746 -114.435070 130 9116ft 190kts
07-Oct-18 09:32 47.085203 -114.381865 130 8172ft 163kts
07-Oct-18 09:33 47.057691 -114.334710 131 7330ft 158kts
07-Oct-18 09:34 47.029173 -114.285744 131 6470ft 164kts
07-Oct-18 09:35 46.999865 -114.235312 130 5544ft 163kts
07-Oct-18 09:36 46.971450 -114.186462 130 4658ft 157kts
07-Oct-18 09:37 46.943546 -114.138876 129 3862ft 154kts
07-Oct-18 09:38 46.917254 -114.093570 130 3217ft 107kts
07-Oct-18 09:39 46.913525 -114.083988 39 3217ft 11kts
07-Oct-18 09:40 46.915464 -114.081757 18 3217ft 0kts
07-Oct-18 09:41 46.916736 -114.083445 309 3217ft 12kts
07-Oct-18 09:42 46.917992 -114.084237 49 3217ft 0kts

Navigation Log

Ident Type
Flight plan parsing failed, navigation log unavailable